sensor_id;sensor_type;location;lat;lon;timestamp;P1;durP1;ratioP1;P2;durP2;ratioP2
81201;SDS011;71068;47.662;-2.750;2024-01-25T00:01:09;9.57;;;2.53;;
81201;SDS011;71068;47.662;-2.750;2024-01-25T00:03:38;10.55;;;3.15;;
81201;SDS011;71068;47.662;-2.750;2024-01-25T00:06:05;5.75;;;2.85;;
81201;SDS011;71068;47.662;-2.750;2024-01-25T00:08:38;18.23;;;3.25;;
81201;SDS011;71068;47.662;-2.750;2024-01-25T00:11:07;13.45;;;2.92;;
81201;SDS011;71068;47.662;-2.750;2024-01-25T00:13:36;15.35;;;3.28;;
81201;SDS011;71068;47.662;-2.750;2024-01-25T00:16:10;13.48;;;2.63;;
81201;SDS011;71068;47.662;-2.750;2024-01-25T00:18:39;6.55;;;2.83;;
81201;SDS011;71068;47.662;-2.750;2024-01-25T00:21:05;9.13;;;2.85;;
81201;SDS011;71068;47.662;-2.750;2024-01-25T00:23:32;17.65;;;3.42;;
81201;SDS011;71068;47.662;-2.750;2024-01-25T00:26:01;7.28;;;2.55;;
81201;SDS011;71068;47.662;-2.750;2024-01-25T00:28:27;9.85;;;3.58;;
81201;SDS011;71068;47.662;-2.750;2024-01-25T00:31:05;5.40;;;3.08;;
81201;SDS011;71068;47.662;-2.750;2024-01-25T00:33:37;6.72;;;3.08;;
81201;SDS011;71068;47.662;-2.750;2024-01-25T00:36:09;8.32;;;2.58;;
81201;SDS011;71068;47.662;-2.750;2024-01-25T00:38:39;10.45;;;2.78;;
81201;SDS011;71068;47.662;-2.750;2024-01-25T00:41:06;8.07;;;2.22;;
81201;SDS011;71068;47.662;-2.750;2024-01-25T00:43:36;11.57;;;3.20;;
81201;SDS011;71068;47.662;-2.750;2024-01-25T00:46:08;8.57;;;2.70;;
81201;SDS011;71068;47.662;-2.750;2024-01-25T00:48:35;11.27;;;2.90;;
81201;SDS011;71068;47.662;-2.750;2024-01-25T00:51:05;7.25;;;2.75;;
81201;SDS011;71068;47.662;-2.750;2024-01-25T00:53:33;6.30;;;3.13;;
81201;SDS011;71068;47.662;-2.750;2024-01-25T00:56:10;11.25;;;3.42;;
81201;SDS011;71068;47.662;-2.750;2024-01-25T01:01:47;3.47;;;2.45;;
81201;SDS011;71068;47.662;-2.750;2024-01-25T01:04:15;4.88;;;3.22;;
81201;SDS011;71068;47.662;-2.750;2024-01-25T01:06:44;11.68;;;2.50;;
81201;SDS011;71068;47.662;-2.750;2024-01-25T01:09:16;10.30;;;2.78;;
81201;SDS011;71068;47.662;-2.750;2024-01-25T01:11:49;19.17;;;3.92;;
81201;SDS011;71068;47.662;-2.750;2024-01-25T01:14:17;7.97;;;2.85;;
81201;SDS011;71068;47.662;-2.750;2024-01-25T01:16:46;14.20;;;3.15;;
81201;SDS011;71068;47.662;-2.750;2024-01-25T01:21:42;6.90;;;2.40;;
81201;SDS011;71068;47.662;-2.750;2024-01-25T01:24:12;15.52;;;2.70;;
81201;SDS011;71068;47.662;-2.750;2024-01-25T01:26:44;5.35;;;2.63;;
81201;SDS011;71068;47.662;-2.750;2024-01-25T01:29:16;11.25;;;2.72;;
81201;SDS011;71068;47.662;-2.750;2024-01-25T01:31:43;17.70;;;3.20;;
81201;SDS011;71068;47.662;-2.750;2024-01-25T01:34:10;7.50;;;2.55;;
81201;SDS011;71068;47.662;-2.750;2024-01-25T01:36:40;3.97;;;2.50;;
81201;SDS011;71068;47.662;-2.750;2024-01-25T01:39:06;7.72;;;2.55;;
81201;SDS011;71068;47.662;-2.750;2024-01-25T01:41:33;15.25;;;3.63;;
81201;SDS011;71068;47.662;-2.750;2024-01-25T01:43:59;7.10;;;2.78;;
81201;SDS011;71068;47.662;-2.750;2024-01-25T01:46:34;9.15;;;2.95;;
81201;SDS011;71068;47.662;-2.750;2024-01-25T01:49:03;5.70;;;2.45;;
81201;SDS011;71068;47.662;-2.750;2024-01-25T01:51:33;12.55;;;2.40;;
81201;SDS011;71068;47.662;-2.750;2024-01-25T01:54:05;9.20;;;2.88;;
81201;SDS011;71068;47.662;-2.750;2024-01-25T01:56:32;13.77;;;2.30;;
81201;SDS011;71068;47.662;-2.750;2024-01-25T01:59:08;4.72;;;2.22;;
81201;SDS011;71068;47.662;-2.750;2024-01-25T02:01:46;8.32;;;2.15;;
81201;SDS011;71068;47.662;-2.750;2024-01-25T02:04:18;9.05;;;3.20;;
81201;SDS011;71068;47.662;-2.750;2024-01-25T02:09:13;2.25;;;1.40;;
81201;SDS011;71068;47.662;-2.750;2024-01-25T02:11:39;14.52;;;3.10;;
81201;SDS011;71068;47.662;-2.750;2024-01-25T02:14:05;19.17;;;2.95;;
81201;SDS011;71068;47.662;-2.750;2024-01-25T02:16:36;8.52;;;2.58;;
81201;SDS011;71068;47.662;-2.750;2024-01-25T02:19:05;3.75;;;1.55;;
81201;SDS011;71068;47.662;-2.750;2024-01-25T02:21:34;9.05;;;2.50;;
81201;SDS011;71068;47.662;-2.750;2024-01-25T02:24:03;5.90;;;2.22;;
81201;SDS011;71068;47.662;-2.750;2024-01-25T02:26:30;3.67;;;2.05;;
81201;SDS011;71068;47.662;-2.750;2024-01-25T02:28:59;6.82;;;2.33;;
81201;SDS011;71068;47.662;-2.750;2024-01-25T02:31:30;6.93;;;2.72;;
81201;SDS011;71068;47.662;-2.750;2024-01-25T02:33:59;3.70;;;2.35;;
81201;SDS011;71068;47.662;-2.750;2024-01-25T02:36:27;8.10;;;2.38;;
81201;SDS011;71068;47.662;-2.750;2024-01-25T02:38:59;6.00;;;2.05;;
81201;SDS011;71068;47.662;-2.750;2024-01-25T02:41:28;14.45;;;2.50;;
81201;SDS011;71068;47.662;-2.750;2024-01-25T02:43:55;15.80;;;2.38;;
81201;SDS011;71068;47.662;-2.750;2024-01-25T02:46:24;16.13;;;2.47;;
81201;SDS011;71068;47.662;-2.750;2024-01-25T02:48:52;7.60;;;2.55;;
81201;SDS011;71068;47.662;-2.750;2024-01-25T02:51:21;3.40;;;1.92;;
81201;SDS011;71068;47.662;-2.750;2024-01-25T02:53:50;6.28;;;2.08;;
81201;SDS011;71068;47.662;-2.750;2024-01-25T02:56:22;5.63;;;2.05;;
81201;SDS011;71068;47.662;-2.750;2024-01-25T02:58:48;17.98;;;2.72;;
81201;SDS011;71068;47.662;-2.750;2024-01-25T03:01:18;5.95;;;2.20;;
81201;SDS011;71068;47.662;-2.750;2024-01-25T03:03:50;13.88;;;2.70;;
81201;SDS011;71068;47.662;-2.750;2024-01-25T03:06:22;12.07;;;2.72;;
81201;SDS011;71068;47.662;-2.750;2024-01-25T03:08:51;9.90;;;2.30;;
81201;SDS011;71068;47.662;-2.750;2024-01-25T03:11:20;6.85;;;2.08;;
81201;SDS011;71068;47.662;-2.750;2024-01-25T03:13:46;3.42;;;1.83;;
81201;SDS011;71068;47.662;-2.750;2024-01-25T03:16:19;27.30;;;3.35;;
81201;SDS011;71068;47.662;-2.750;2024-01-25T03:18:46;9.88;;;2.03;;
81201;SDS011;71068;47.662;-2.750;2024-01-25T03:21:15;8.95;;;2.45;;
81201;SDS011;71068;47.662;-2.750;2024-01-25T03:23:51;2.97;;;1.85;;
81201;SDS011;71068;47.662;-2.750;2024-01-25T03:26:17;2.65;;;1.67;;
81201;SDS011;71068;47.662;-2.750;2024-01-25T03:31:18;9.07;;;1.75;;
81201;SDS011;71068;47.662;-2.750;2024-01-25T03:33:44;7.60;;;2.55;;
81201;SDS011;71068;47.662;-2.750;2024-01-25T03:36:16;7.15;;;1.92;;
81201;SDS011;71068;47.662;-2.750;2024-01-25T03:38:42;15.10;;;2.85;;
81201;SDS011;71068;47.662;-2.750;2024-01-25T03:41:08;8.60;;;2.15;;
81201;SDS011;71068;47.662;-2.750;2024-01-25T03:43:35;7.97;;;1.90;;
81201;SDS011;71068;47.662;-2.750;2024-01-25T03:46:07;7.55;;;2.15;;
81201;SDS011;71068;47.662;-2.750;2024-01-25T03:48:33;3.92;;;1.70;;
81201;SDS011;71068;47.662;-2.750;2024-01-25T03:51:01;18.23;;;2.38;;
81201;SDS011;71068;47.662;-2.750;2024-01-25T03:53:27;5.82;;;1.40;;
81201;SDS011;71068;47.662;-2.750;2024-01-25T03:55:56;8.45;;;3.22;;
81201;SDS011;71068;47.662;-2.750;2024-01-25T03:58:24;12.20;;;2.05;;
81201;SDS011;71068;47.662;-2.750;2024-01-25T04:00:53;7.43;;;1.80;;
81201;SDS011;71068;47.662;-2.750;2024-01-25T04:03:22;9.90;;;2.92;;
81201;SDS011;71068;47.662;-2.750;2024-01-25T04:05:48;5.28;;;1.92;;
81201;SDS011;71068;47.662;-2.750;2024-01-25T04:08:14;8.55;;;2.42;;
81201;SDS011;71068;47.662;-2.750;2024-01-25T04:10:45;5.63;;;2.50;;
81201;SDS011;71068;47.662;-2.750;2024-01-25T04:13:14;5.93;;;2.33;;
81201;SDS011;71068;47.662;-2.750;2024-01-25T04:18:12;10.40;;;2.03;;
81201;SDS011;71068;47.662;-2.750;2024-01-25T04:20:41;6.03;;;2.95;;
81201;SDS011;71068;47.662;-2.750;2024-01-25T04:23:14;8.85;;;2.83;;
81201;SDS011;71068;47.662;-2.750;2024-01-25T04:25:50;7.28;;;2.25;;
81201;SDS011;71068;47.662;-2.750;2024-01-25T04:28:16;8.90;;;2.55;;
81201;SDS011;71068;47.662;-2.750;2024-01-25T04:30:43;5.45;;;2.80;;
81201;SDS011;71068;47.662;-2.750;2024-01-25T04:33:12;10.68;;;2.15;;
81201;SDS011;71068;47.662;-2.750;2024-01-25T04:35:38;11.07;;;1.92;;
81201;SDS011;71068;47.662;-2.750;2024-01-25T04:38:04;4.40;;;2.75;;
81201;SDS011;71068;47.662;-2.750;2024-01-25T04:40:30;9.27;;;2.47;;
81201;SDS011;71068;47.662;-2.750;2024-01-25T04:42:59;8.20;;;3.17;;
81201;SDS011;71068;47.662;-2.750;2024-01-25T04:45:28;2.42;;;2.20;;
81201;SDS011;71068;47.662;-2.750;2024-01-25T04:47:54;6.63;;;3.60;;
81201;SDS011;71068;47.662;-2.750;2024-01-25T04:50:23;7.20;;;2.35;;
81201;SDS011;71068;47.662;-2.750;2024-01-25T04:52:50;4.47;;;2.15;;
81201;SDS011;71068;47.662;-2.750;2024-01-25T04:55:22;6.18;;;2.17;;
81201;SDS011;71068;47.662;-2.750;2024-01-25T04:57:50;6.82;;;2.15;;
81201;SDS011;71068;47.662;-2.750;2024-01-25T05:00:21;4.70;;;2.50;;
81201;SDS011;71068;47.662;-2.750;2024-01-25T05:02:48;9.55;;;2.78;;
81201;SDS011;71068;47.662;-2.750;2024-01-25T05:05:15;8.30;;;2.38;;
81201;SDS011;71068;47.662;-2.750;2024-01-25T05:07:44;14.02;;;2.83;;
81201;SDS011;71068;47.662;-2.750;2024-01-25T05:12:49;12.85;;;3.33;;
81201;SDS011;71068;47.662;-2.750;2024-01-25T05:15:15;4.63;;;2.80;;
81201;SDS011;71068;47.662;-2.750;2024-01-25T05:17:44;6.78;;;3.13;;
81201;SDS011;71068;47.662;-2.750;2024-01-25T05:20:11;9.45;;;3.20;;
81201;SDS011;71068;47.662;-2.750;2024-01-25T05:22:41;8.25;;;3.70;;
81201;SDS011;71068;47.662;-2.750;2024-01-25T05:25:11;4.53;;;2.67;;
81201;SDS011;71068;47.662;-2.750;2024-01-25T05:27:37;6.82;;;2.78;;
81201;SDS011;71068;47.662;-2.750;2024-01-25T05:30:04;10.48;;;3.08;;
81201;SDS011;71068;47.662;-2.750;2024-01-25T05:32:37;12.15;;;3.05;;
81201;SDS011;71068;47.662;-2.750;2024-01-25T05:37:32;5.80;;;3.28;;
81201;SDS011;71068;47.662;-2.750;2024-01-25T05:42:30;14.48;;;3.22;;
81201;SDS011;71068;47.662;-2.750;2024-01-25T05:45:00;24.88;;;3.30;;
81201;SDS011;71068;47.662;-2.750;2024-01-25T05:47:39;6.28;;;2.50;;
81201;SDS011;71068;47.662;-2.750;2024-01-25T05:50:05;22.05;;;3.22;;
81201;SDS011;71068;47.662;-2.750;2024-01-25T05:52:34;8.15;;;3.00;;
81201;SDS011;71068;47.662;-2.750;2024-01-25T05:55:05;33.85;;;3.10;;
81201;SDS011;71068;47.662;-2.750;2024-01-25T05:57:32;17.33;;;3.55;;
81201;SDS011;71068;47.662;-2.750;2024-01-25T06:00:05;10.90;;;3.17;;
81201;SDS011;71068;47.662;-2.750;2024-01-25T06:02:32;17.13;;;3.13;;
81201;SDS011;71068;47.662;-2.750;2024-01-25T06:05:02;10.07;;;2.72;;
81201;SDS011;71068;47.662;-2.750;2024-01-25T06:07:31;10.15;;;2.55;;
81201;SDS011;71068;47.662;-2.750;2024-01-25T06:09:57;15.68;;;2.92;;
81201;SDS011;71068;47.662;-2.750;2024-01-25T06:12:23;9.25;;;2.85;;
81201;SDS011;71068;47.662;-2.750;2024-01-25T06:14:52;5.35;;;2.78;;
81201;SDS011;71068;47.662;-2.750;2024-01-25T06:17:23;5.05;;;2.30;;
81201;SDS011;71068;47.662;-2.750;2024-01-25T06:19:58;17.13;;;3.20;;
81201;SDS011;71068;47.662;-2.750;2024-01-25T06:24:55;11.25;;;2.80;;
81201;SDS011;71068;47.662;-2.750;2024-01-25T06:27:21;5.85;;;2.72;;
81201;SDS011;71068;47.662;-2.750;2024-01-25T06:29:53;6.22;;;3.53;;
81201;SDS011;71068;47.662;-2.750;2024-01-25T06:32:19;3.90;;;2.80;;
81201;SDS011;71068;47.662;-2.750;2024-01-25T06:34:45;12.75;;;3.10;;
81201;SDS011;71068;47.662;-2.750;2024-01-25T06:37:14;6.68;;;2.75;;
81201;SDS011;71068;47.662;-2.750;2024-01-25T06:39:44;4.30;;;2.00;;
81201;SDS011;71068;47.662;-2.750;2024-01-25T06:42:19;6.18;;;2.78;;
81201;SDS011;71068;47.662;-2.750;2024-01-25T06:44:48;6.00;;;3.40;;
81201;SDS011;71068;47.662;-2.750;2024-01-25T06:47:17;6.80;;;3.90;;
81201;SDS011;71068;47.662;-2.750;2024-01-25T06:49:43;5.82;;;2.85;;
81201;SDS011;71068;47.662;-2.750;2024-01-25T06:52:19;9.80;;;3.10;;
81201;SDS011;71068;47.662;-2.750;2024-01-25T06:54:48;9.18;;;2.88;;
81201;SDS011;71068;47.662;-2.750;2024-01-25T06:57:17;5.05;;;2.92;;
81201;SDS011;71068;47.662;-2.750;2024-01-25T06:59:46;4.85;;;3.08;;
81201;SDS011;71068;47.662;-2.750;2024-01-25T07:02:23;7.28;;;3.72;;
81201;SDS011;71068;47.662;-2.750;2024-01-25T07:04:52;6.25;;;3.05;;
81201;SDS011;71068;47.662;-2.750;2024-01-25T07:07:22;6.53;;;2.42;;
81201;SDS011;71068;47.662;-2.750;2024-01-25T07:09:53;5.50;;;3.35;;
81201;SDS011;71068;47.662;-2.750;2024-01-25T07:12:25;7.13;;;2.97;;
81201;SDS011;71068;47.662;-2.750;2024-01-25T07:14:54;10.43;;;2.42;;
81201;SDS011;71068;47.662;-2.750;2024-01-25T07:17:24;6.57;;;3.42;;
81201;SDS011;71068;47.662;-2.750;2024-01-25T07:19:50;5.75;;;2.33;;
81201;SDS011;71068;47.662;-2.750;2024-01-25T07:22:19;6.25;;;2.38;;
81201;SDS011;71068;47.662;-2.750;2024-01-25T07:24:48;3.00;;;2.10;;
81201;SDS011;71068;47.662;-2.750;2024-01-25T07:27:19;4.93;;;2.92;;
81201;SDS011;71068;47.662;-2.750;2024-01-25T07:29:48;4.13;;;2.22;;
81201;SDS011;71068;47.662;-2.750;2024-01-25T07:32:17;4.40;;;2.70;;
81201;SDS011;71068;47.662;-2.750;2024-01-25T07:34:45;3.10;;;1.98;;
81201;SDS011;71068;47.662;-2.750;2024-01-25T07:39:47;3.38;;;2.15;;
81201;SDS011;71068;47.662;-2.750;2024-01-25T07:42:17;3.33;;;1.95;;
81201;SDS011;71068;47.662;-2.750;2024-01-25T07:44:49;6.95;;;1.63;;
81201;SDS011;71068;47.662;-2.750;2024-01-25T07:47:22;2.72;;;1.58;;
81201;SDS011;71068;47.662;-2.750;2024-01-25T07:49:50;7.22;;;2.08;;
81201;SDS011;71068;47.662;-2.750;2024-01-25T07:52:16;2.13;;;1.52;;
81201;SDS011;71068;47.662;-2.750;2024-01-25T07:54:44;3.45;;;1.75;;
81201;SDS011;71068;47.662;-2.750;2024-01-25T07:57:13;2.40;;;1.33;;
81201;SDS011;71068;47.662;-2.750;2024-01-25T07:59:40;2.60;;;1.13;;
81201;SDS011;71068;47.662;-2.750;2024-01-25T08:02:17;0.90;;;0.90;;
81201;SDS011;71068;47.662;-2.750;2024-01-25T08:04:47;1.13;;;1.10;;
81201;SDS011;71068;47.662;-2.750;2024-01-25T08:07:18;6.55;;;1.33;;
81201;SDS011;71068;47.662;-2.750;2024-01-25T08:09:45;0.80;;;0.80;;
81201;SDS011;71068;47.662;-2.750;2024-01-25T08:12:14;1.98;;;1.50;;
81201;SDS011;71068;47.662;-2.750;2024-01-25T08:14:41;2.10;;;1.80;;
81201;SDS011;71068;47.662;-2.750;2024-01-25T08:17:09;1.70;;;1.15;;
81201;SDS011;71068;47.662;-2.750;2024-01-25T08:22:12;5.13;;;1.67;;
81201;SDS011;71068;47.662;-2.750;2024-01-25T08:24:41;7.95;;;1.30;;
81201;SDS011;71068;47.662;-2.750;2024-01-25T08:27:10;5.45;;;1.88;;
81201;SDS011;71068;47.662;-2.750;2024-01-25T08:29:38;1.30;;;1.10;;
81201;SDS011;71068;47.662;-2.750;2024-01-25T08:32:10;4.95;;;1.40;;
81201;SDS011;71068;47.662;-2.750;2024-01-25T08:34:37;3.30;;;0.90;;
81201;SDS011;71068;47.662;-2.750;2024-01-25T08:37:06;2.80;;;0.90;;
81201;SDS011;71068;47.662;-2.750;2024-01-25T08:39:36;1.65;;;1.25;;
81201;SDS011;71068;47.662;-2.750;2024-01-25T08:42:11;5.25;;;1.33;;
81201;SDS011;71068;47.662;-2.750;2024-01-25T08:44:42;1.17;;;1.00;;
81201;SDS011;71068;47.662;-2.750;2024-01-25T08:47:25;1.65;;;0.82;;
81201;SDS011;71068;47.662;-2.750;2024-01-25T08:49:54;2.78;;;1.02;;
81201;SDS011;71068;47.662;-2.750;2024-01-25T08:52:20;2.22;;;1.85;;
81201;SDS011;71068;47.662;-2.750;2024-01-25T08:54:53;7.22;;;1.40;;
81201;SDS011;71068;47.662;-2.750;2024-01-25T08:57:19;2.38;;;1.15;;
81201;SDS011;71068;47.662;-2.750;2024-01-25T08:59:48;2.17;;;1.17;;
81201;SDS011;71068;47.662;-2.750;2024-01-25T09:02:16;1.38;;;1.30;;
81201;SDS011;71068;47.662;-2.750;2024-01-25T09:04:47;7.32;;;1.38;;
81201;SDS011;71068;47.662;-2.750;2024-01-25T09:07:17;2.22;;;1.45;;
81201;SDS011;71068;47.662;-2.750;2024-01-25T09:09:44;8.63;;;1.45;;
81201;SDS011;71068;47.662;-2.750;2024-01-25T09:12:16;8.85;;;1.20;;
81201;SDS011;71068;47.662;-2.750;2024-01-25T09:14:46;7.25;;;1.80;;
81201;SDS011;71068;47.662;-2.750;2024-01-25T09:17:15;1.98;;;1.45;;
81201;SDS011;71068;47.662;-2.750;2024-01-25T09:19:50;6.00;;;1.50;;
81201;SDS011;71068;47.662;-2.750;2024-01-25T09:27:18;11.77;;;2.00;;
81201;SDS011;71068;47.662;-2.750;2024-01-25T09:29:47;2.92;;;1.73;;
81201;SDS011;71068;47.662;-2.750;2024-01-25T09:34:54;2.50;;;1.65;;
81201;SDS011;71068;47.662;-2.750;2024-01-25T09:37:31;3.28;;;1.65;;
81201;SDS011;71068;47.662;-2.750;2024-01-25T09:40:16;4.18;;;2.28;;
81201;SDS011;71068;47.662;-2.750;2024-01-25T09:42:45;4.68;;;1.25;;
81201;SDS011;71068;47.662;-2.750;2024-01-25T09:49:02;2.67;;;1.77;;
81201;SDS011;71068;47.662;-2.750;2024-01-25T09:51:40;1.98;;;1.20;;
81201;SDS011;71068;47.662;-2.750;2024-01-25T09:54:07;4.00;;;1.98;;
81201;SDS011;71068;47.662;-2.750;2024-01-25T09:56:37;2.58;;;1.67;;
81201;SDS011;71068;47.662;-2.750;2024-01-25T09:59:06;12.90;;;2.35;;
81201;SDS011;71068;47.662;-2.750;2024-01-25T10:01:43;4.03;;;1.77;;
81201;SDS011;71068;47.662;-2.750;2024-01-25T10:04:15;3.25;;;1.55;;
81201;SDS011;71068;47.662;-2.750;2024-01-25T10:07:00;3.45;;;1.45;;
81201;SDS011;71068;47.662;-2.750;2024-01-25T10:09:38;4.25;;;0.98;;
81201;SDS011;71068;47.662;-2.750;2024-01-25T10:12:18;7.40;;;1.80;;
81201;SDS011;71068;47.662;-2.750;2024-01-25T10:15:12;6.40;;;1.40;;
81201;SDS011;71068;47.662;-2.750;2024-01-25T10:17:39;3.40;;;1.73;;
81201;SDS011;71068;47.662;-2.750;2024-01-25T10:20:16;8.15;;;2.47;;
81201;SDS011;71068;47.662;-2.750;2024-01-25T10:28:04;3.63;;;1.92;;
81201;SDS011;71068;47.662;-2.750;2024-01-25T10:30:33;11.13;;;2.85;;
81201;SDS011;71068;47.662;-2.750;2024-01-25T10:43:53;11.45;;;3.13;;
81201;SDS011;71068;47.662;-2.750;2024-01-25T10:46:22;7.85;;;2.20;;
81201;SDS011;71068;47.662;-2.750;2024-01-25T10:48:48;4.00;;;2.30;;
81201;SDS011;71068;47.662;-2.750;2024-01-25T10:51:34;7.65;;;1.90;;
81201;SDS011;71068;47.662;-2.750;2024-01-25T10:54:03;4.43;;;1.33;;
81201;SDS011;71068;47.662;-2.750;2024-01-25T10:56:37;4.15;;;1.92;;
81201;SDS011;71068;47.662;-2.750;2024-01-25T10:59:06;7.50;;;1.50;;
81201;SDS011;71068;47.662;-2.750;2024-01-25T11:01:36;8.93;;;1.98;;
81201;SDS011;71068;47.662;-2.750;2024-01-25T11:04:15;6.07;;;2.28;;
81201;SDS011;71068;47.662;-2.750;2024-01-25T11:06:47;6.82;;;2.45;;
81201;SDS011;71068;47.662;-2.750;2024-01-25T11:09:20;12.15;;;2.97;;
81201;SDS011;71068;47.662;-2.750;2024-01-25T11:14:36;6.22;;;3.05;;
81201;SDS011;71068;47.662;-2.750;2024-01-25T11:17:14;4.85;;;2.10;;
81201;SDS011;71068;47.662;-2.750;2024-01-25T11:22:38;12.93;;;3.17;;
81201;SDS011;71068;47.662;-2.750;2024-01-25T11:25:31;12.93;;;2.85;;
81201;SDS011;71068;47.662;-2.750;2024-01-25T11:28:04;15.88;;;3.03;;
81201;SDS011;71068;47.662;-2.750;2024-01-25T11:30:41;15.48;;;4.03;;
81201;SDS011;71068;47.662;-2.750;2024-01-25T11:33:08;4.80;;;2.42;;
81201;SDS011;71068;47.662;-2.750;2024-01-25T11:35:38;6.28;;;2.28;;
81201;SDS011;71068;47.662;-2.750;2024-01-25T11:38:04;6.15;;;2.03;;
81201;SDS011;71068;47.662;-2.750;2024-01-25T11:40:30;8.13;;;2.42;;
81201;SDS011;71068;47.662;-2.750;2024-01-25T11:42:56;12.02;;;2.78;;
81201;SDS011;71068;47.662;-2.750;2024-01-25T11:45:23;7.43;;;3.10;;
81201;SDS011;71068;47.662;-2.750;2024-01-25T11:47:51;13.45;;;2.70;;
81201;SDS011;71068;47.662;-2.750;2024-01-25T11:50:17;4.00;;;2.25;;
81201;SDS011;71068;47.662;-2.750;2024-01-25T11:52:46;6.20;;;1.88;;
81201;SDS011;71068;47.662;-2.750;2024-01-25T11:55:28;7.35;;;2.17;;
81201;SDS011;71068;47.662;-2.750;2024-01-25T11:57:57;4.13;;;1.52;;
81201;SDS011;71068;47.662;-2.750;2024-01-25T12:00:27;7.25;;;2.53;;
81201;SDS011;71068;47.662;-2.750;2024-01-25T12:02:54;4.47;;;2.05;;
81201;SDS011;71068;47.662;-2.750;2024-01-25T12:05:23;2.47;;;2.05;;
81201;SDS011;71068;47.662;-2.750;2024-01-25T12:07:52;2.65;;;2.13;;
81201;SDS011;71068;47.662;-2.750;2024-01-25T12:10:23;6.68;;;1.55;;
81201;SDS011;71068;47.662;-2.750;2024-01-25T12:12:51;6.75;;;2.72;;
81201;SDS011;71068;47.662;-2.750;2024-01-25T12:15:20;1.63;;;1.33;;
81201;SDS011;71068;47.662;-2.750;2024-01-25T12:17:46;5.55;;;1.92;;
81201;SDS011;71068;47.662;-2.750;2024-01-25T12:20:12;8.73;;;2.38;;
81201;SDS011;71068;47.662;-2.750;2024-01-25T12:22:39;6.85;;;2.13;;
81201;SDS011;71068;47.662;-2.750;2024-01-25T12:25:08;6.65;;;1.70;;
81201;SDS011;71068;47.662;-2.750;2024-01-25T12:27:37;11.77;;;2.33;;
81201;SDS011;71068;47.662;-2.750;2024-01-25T12:30:09;3.90;;;1.63;;
81201;SDS011;71068;47.662;-2.750;2024-01-25T12:32:39;3.60;;;1.83;;
81201;SDS011;71068;47.662;-2.750;2024-01-25T12:35:12;6.05;;;2.72;;
81201;SDS011;71068;47.662;-2.750;2024-01-25T12:37:38;3.33;;;1.60;;
81201;SDS011;71068;47.662;-2.750;2024-01-25T12:40:08;3.22;;;2.00;;
81201;SDS011;71068;47.662;-2.750;2024-01-25T12:42:41;1.50;;;1.25;;
81201;SDS011;71068;47.662;-2.750;2024-01-25T12:45:08;5.85;;;2.22;;
81201;SDS011;71068;47.662;-2.750;2024-01-25T12:47:36;3.10;;;1.52;;
81201;SDS011;71068;47.662;-2.750;2024-01-25T12:50:03;4.88;;;2.30;;
81201;SDS011;71068;47.662;-2.750;2024-01-25T12:52:29;2.20;;;1.27;;
81201;SDS011;71068;47.662;-2.750;2024-01-25T12:54:58;3.40;;;2.17;;
81201;SDS011;71068;47.662;-2.750;2024-01-25T12:57:27;1.50;;;1.25;;
81201;SDS011;71068;47.662;-2.750;2024-01-25T12:59:53;3.47;;;2.03;;
81201;SDS011;71068;47.662;-2.750;2024-01-25T13:02:23;5.63;;;1.67;;
81201;SDS011;71068;47.662;-2.750;2024-01-25T13:04:49;4.30;;;1.27;;
81201;SDS011;71068;47.662;-2.750;2024-01-25T13:07:20;3.33;;;1.45;;
81201;SDS011;71068;47.662;-2.750;2024-01-25T13:09:52;2.75;;;1.25;;
81201;SDS011;71068;47.662;-2.750;2024-01-25T13:12:18;3.58;;;1.63;;
81201;SDS011;71068;47.662;-2.750;2024-01-25T13:14:45;2.80;;;1.27;;
81201;SDS011;71068;47.662;-2.750;2024-01-25T13:17:11;3.75;;;1.63;;
81201;SDS011;71068;47.662;-2.750;2024-01-25T13:19:40;2.83;;;1.20;;
81201;SDS011;71068;47.662;-2.750;2024-01-25T13:22:12;3.13;;;1.77;;
81201;SDS011;71068;47.662;-2.750;2024-01-25T13:24:38;6.80;;;1.77;;
81201;SDS011;71068;47.662;-2.750;2024-01-25T13:27:10;6.53;;;1.73;;
81201;SDS011;71068;47.662;-2.750;2024-01-25T13:32:04;3.17;;;1.58;;
81201;SDS011;71068;47.662;-2.750;2024-01-25T13:34:41;5.22;;;1.95;;
81201;SDS011;71068;47.662;-2.750;2024-01-25T13:37:09;6.00;;;2.40;;
81201;SDS011;71068;47.662;-2.750;2024-01-25T13:39:37;2.58;;;1.98;;
81201;SDS011;71068;47.662;-2.750;2024-01-25T13:42:09;11.35;;;2.15;;
81201;SDS011;71068;47.662;-2.750;2024-01-25T13:44:35;3.53;;;1.48;;
81201;SDS011;71068;47.662;-2.750;2024-01-25T13:47:01;4.15;;;1.85;;
81201;SDS011;71068;47.662;-2.750;2024-01-25T13:49:27;8.65;;;2.22;;
81201;SDS011;71068;47.662;-2.750;2024-01-25T13:52:02;4.95;;;1.80;;
81201;SDS011;71068;47.662;-2.750;2024-01-25T13:54:32;4.93;;;2.58;;
81201;SDS011;71068;47.662;-2.750;2024-01-25T13:57:01;7.18;;;2.15;;
81201;SDS011;71068;47.662;-2.750;2024-01-25T13:59:30;5.97;;;2.28;;
81201;SDS011;71068;47.662;-2.750;2024-01-25T14:02:06;5.80;;;2.15;;
81201;SDS011;71068;47.662;-2.750;2024-01-25T14:04:45;6.97;;;2.33;;
81201;SDS011;71068;47.662;-2.750;2024-01-25T14:07:15;3.10;;;1.70;;
81201;SDS011;71068;47.662;-2.750;2024-01-25T14:09:42;8.40;;;2.30;;
81201;SDS011;71068;47.662;-2.750;2024-01-25T14:12:14;4.15;;;2.08;;
81201;SDS011;71068;47.662;-2.750;2024-01-25T14:14:42;7.03;;;2.80;;
81201;SDS011;71068;47.662;-2.750;2024-01-25T14:17:14;5.78;;;3.00;;
81201;SDS011;71068;47.662;-2.750;2024-01-25T14:22:11;7.32;;;2.63;;
81201;SDS011;71068;47.662;-2.750;2024-01-25T14:24:40;7.47;;;2.80;;
81201;SDS011;71068;47.662;-2.750;2024-01-25T14:27:16;3.45;;;2.20;;
81201;SDS011;71068;47.662;-2.750;2024-01-25T14:29:42;4.82;;;2.65;;
81201;SDS011;71068;47.662;-2.750;2024-01-25T14:32:15;9.68;;;3.05;;
81201;SDS011;71068;47.662;-2.750;2024-01-25T14:34:42;8.82;;;3.20;;
81201;SDS011;71068;47.662;-2.750;2024-01-25T14:37:09;9.02;;;3.97;;
81201;SDS011;71068;47.662;-2.750;2024-01-25T14:39:38;10.40;;;2.38;;
81201;SDS011;71068;47.662;-2.750;2024-01-25T14:42:09;10.98;;;3.33;;
81201;SDS011;71068;47.662;-2.750;2024-01-25T14:44:39;10.05;;;2.88;;
81201;SDS011;71068;47.662;-2.750;2024-01-25T14:47:08;7.30;;;3.00;;
81201;SDS011;71068;47.662;-2.750;2024-01-25T14:52:09;12.27;;;2.80;;
81201;SDS011;71068;47.662;-2.750;2024-01-25T14:54:37;2.20;;;1.58;;
81201;SDS011;71068;47.662;-2.750;2024-01-25T14:57:04;6.75;;;2.47;;
81201;SDS011;71068;47.662;-2.750;2024-01-25T14:59:33;7.68;;;3.78;;
81201;SDS011;71068;47.662;-2.750;2024-01-25T15:02:02;8.52;;;3.53;;
81201;SDS011;71068;47.662;-2.750;2024-01-25T15:04:28;6.50;;;3.00;;
81201;SDS011;71068;47.662;-2.750;2024-01-25T15:06:58;7.57;;;3.75;;
81201;SDS011;71068;47.662;-2.750;2024-01-25T15:09:27;7.85;;;3.78;;
81201;SDS011;71068;47.662;-2.750;2024-01-25T15:11:56;8.70;;;4.38;;
81201;SDS011;71068;47.662;-2.750;2024-01-25T15:14:22;9.18;;;3.33;;
81201;SDS011;71068;47.662;-2.750;2024-01-25T15:16:51;16.27;;;4.65;;
81201;SDS011;71068;47.662;-2.750;2024-01-25T15:19:18;12.27;;;4.28;;
81201;SDS011;71068;47.662;-2.750;2024-01-25T15:21:48;10.40;;;3.40;;
81201;SDS011;71068;47.662;-2.750;2024-01-25T15:24:14;10.15;;;4.07;;
81201;SDS011;71068;47.662;-2.750;2024-01-25T15:26:41;7.05;;;4.35;;
81201;SDS011;71068;47.662;-2.750;2024-01-25T15:29:11;8.85;;;3.83;;
81201;SDS011;71068;47.662;-2.750;2024-01-25T15:31:42;12.75;;;4.85;;
81201;SDS011;71068;47.662;-2.750;2024-01-25T15:34:12;15.15;;;4.07;;
81201;SDS011;71068;47.662;-2.750;2024-01-25T15:36:40;10.23;;;4.47;;
81201;SDS011;71068;47.662;-2.750;2024-01-25T15:39:09;10.48;;;4.25;;
81201;SDS011;71068;47.662;-2.750;2024-01-25T15:41:38;13.32;;;4.63;;
81201;SDS011;71068;47.662;-2.750;2024-01-25T15:46:43;13.40;;;4.30;;
81201;SDS011;71068;47.662;-2.750;2024-01-25T15:49:09;10.48;;;4.03;;
81201;SDS011;71068;47.662;-2.750;2024-01-25T15:51:35;11.75;;;4.00;;
81201;SDS011;71068;47.662;-2.750;2024-01-25T15:54:01;6.75;;;2.85;;
81201;SDS011;71068;47.662;-2.750;2024-01-25T15:56:30;7.28;;;3.42;;